Time;durP1;ratioP1;P1;durP2;ratioP2;P2;SDS_P1;SDS_P2;PMS_P1;PMS_P2;Temp;Humidity;BMP_temperature;BMP_pressure;BME280_temperature;BME280_humidity;BME280_pressure;Samples;Min_cycle;Max_cycle;Signal;HPM_P1;HPM_P2
2022/11/23 00:01:59;;;;;;;36.05;33.25;;;10.70;99.90;;;;;;4990209;28;20061;-78
2022/11/23 00:04:25;;;;;;;33.67;30.95;;;10.70;99.90;;;;;;4991287;28;20022;-79
2022/11/23 00:06:51;;;;;;;31.13;28.33;;;10.70;99.90;;;;;;5011825;28;20084;-79
2022/11/23 00:09:18;;;;;;;30.20;27.65;;;10.70;99.90;;;;;;4991301;28;20034;-78
2022/11/23 00:11:44;;;;;;;28.20;25.73;;;10.70;99.90;;;;;;4991422;28;20387;-79
2022/11/23 00:14:10;;;;;;;27.55;25.05;;;10.70;99.90;;;;;;5006264;28;20038;-78
2022/11/23 00:16:36;;;;;;;28.73;26.17;;;10.70;99.90;;;;;;5005838;28;20046;-79
2022/11/23 00:19:03;;;;;;;25.83;23.60;;;10.80;99.90;;;;;;5008205;28;20025;-79
2022/11/23 00:21:30;;;;;;;25.38;23.17;;;10.70;99.90;;;;;;5027139;28;20033;-79
2022/11/23 00:23:56;;;;;;;29.23;26.90;;;10.70;99.90;;;;;;5010921;28;20483;-79
2022/11/23 00:26:23;;;;;;;30.92;28.42;;;10.70;99.90;;;;;;5026186;28;20046;-79
2022/11/23 00:28:49;;;;;;;32.63;29.73;;;10.60;99.90;;;;;;4993247;28;20513;-79
2022/11/23 00:31:16;;;;;;;32.97;30.13;;;10.60;99.90;;;;;;4994819;28;20510;-79
2022/11/23 00:33:47;;;;;;;32.42;30.05;;;10.60;99.90;;;;;;5025266;28;20487;-79
2022/11/23 00:36:14;;;;;;;28.23;25.80;;;10.50;99.90;;;;;;5009778;28;20038;-79
2022/11/23 00:38:40;;;;;;;27.60;25.23;;;10.50;99.90;;;;;;4980905;28;20797;-79
2022/11/23 00:41:11;;;;;;;20.73;18.83;;;10.40;99.90;;;;;;5010593;28;20494;-80
2022/11/23 00:43:37;;;;;;;20.92;18.92;;;10.30;99.90;;;;;;4995000;28;20383;-79
2022/11/23 00:46:07;;;;;;;23.63;21.65;;;10.20;99.90;;;;;;4993935;28;20035;-79
2022/11/23 00:48:33;;;;;;;20.33;18.77;;;10.20;99.90;;;;;;4994506;28;20038;-79
2022/11/23 00:51:03;;;;;;;22.08;19.88;;;10.20;99.90;;;;;;5011173;28;20030;-79
2022/11/23 00:53:29;;;;;;;21.75;19.63;;;10.10;99.90;;;;;;4979441;28;20408;-78
2022/11/23 00:55:55;;;;;;;23.02;21.13;;;10.10;99.90;;;;;;4998686;28;20476;-79
2022/11/23 00:58:22;;;;;;;23.02;20.73;;;10.10;99.90;;;;;;4993780;28;20034;-79
2022/11/23 01:00:48;;;;;;;24.55;22.42;;;10.00;99.90;;;;;;5007227;28;20046;-79
2022/11/23 01:03:14;;;;;;;25.42;22.75;;;10.10;99.90;;;;;;4976228;28;20034;-79
2022/11/23 01:05:40;;;;;;;22.02;20.48;;;10.10;99.90;;;;;;4992871;28;20034;-79
2022/11/23 01:08:07;;;;;;;22.17;20.65;;;10.20;99.90;;;;;;4973003;28;20043;-78
2022/11/23 01:10:33;;;;;;;23.58;21.70;;;10.10;99.90;;;;;;4990793;28;20054;-79
2022/11/23 01:12:59;;;;;;;25.63;23.65;;;10.10;99.90;;;;;;4991214;28;20380;-79
2022/11/23 01:15:25;;;;;;;26.65;23.80;;;10.10;99.90;;;;;;4992564;28;20746;-78
2022/11/23 01:17:51;;;;;;;27.20;24.73;;;10.00;99.90;;;;;;5007714;28;20044;-79
2022/11/23 01:20:17;;;;;;;26.38;24.50;;;10.00;99.90;;;;;;4993645;28;20398;-78
2022/11/23 01:22:43;;;;;;;26.10;23.90;;;10.00;99.90;;;;;;4993382;28;20041;-79
2022/11/23 01:25:10;;;;;;;28.23;25.88;;;10.00;99.90;;;;;;5019053;28;20061;-79
2022/11/23 01:27:36;;;;;;;25.75;23.48;;;10.10;99.90;;;;;;4987144;28;20053;-79
2022/11/23 01:30:02;;;;;;;24.73;22.80;;;10.00;99.90;;;;;;4989723;28;20038;-78
2022/11/23 01:32:28;;;;;;;27.98;25.70;;;10.00;99.90;;;;;;4990479;28;20038;-79
2022/11/23 01:34:54;;;;;;;25.15;22.67;;;10.00;99.90;;;;;;4993084;28;20053;-78
2022/11/23 01:37:20;;;;;;;25.48;23.67;;;10.00;99.90;;;;;;4994354;28;20053;-79
2022/11/23 01:39:47;;;;;;;31.45;29.35;;;10.00;99.90;;;;;;4994955;28;20387;-78
2022/11/23 01:42:13;;;;;;;37.08;34.28;;;10.00;99.90;;;;;;5025171;28;20484;-79
2022/11/23 01:44:42;;;;;;;34.60;32.38;;;10.10;99.90;;;;;;5012660;28;20039;-78
2022/11/23 01:47:09;;;;;;;27.45;25.50;;;10.20;99.90;;;;;;4985673;28;20487;-78
2022/11/23 01:49:38;;;;;;;24.23;22.25;;;10.10;99.90;;;;;;5026641;28;20045;-78
2022/11/23 01:52:34;;;;;;;28.23;26.15;;;10.00;99.90;;;;;;5025942;28;20041;-79
2022/11/23 01:55:00;;;;;;;30.92;28.27;;;10.10;99.90;;;;;;4991547;28;20038;-79
2022/11/23 01:57:35;;;;;;;29.23;26.90;;;10.10;99.90;;;;;;4974970;28;20041;-79
2022/11/23 02:00:01;;;;;;;28.42;26.27;;;10.20;99.90;;;;;;4992554;28;20027;-79
2022/11/23 02:02:27;;;;;;;26.40;24.70;;;10.20;99.90;;;;;;5007842;28;20514;-79
2022/11/23 02:04:53;;;;;;;28.75;26.33;;;10.20;99.90;;;;;;5009835;28;20034;-79
2022/11/23 02:07:19;;;;;;;28.60;26.50;;;10.20;99.90;;;;;;5009096;28;20490;-79
2022/11/23 02:09:46;;;;;;;29.27;26.73;;;10.20;99.90;;;;;;4999347;28;20045;-79
2022/11/23 02:12:12;;;;;;;28.13;25.98;;;10.20;99.90;;;;;;4990612;28;20049;-79
2022/11/23 02:14:39;;;;;;;26.02;23.98;;;10.20;99.90;;;;;;5009508;28;20022;-79
2022/11/23 02:17:05;;;;;;;28.25;25.92;;;10.20;99.90;;;;;;4990863;28;20065;-79
2022/11/23 02:19:40;;;;;;;28.58;26.10;;;10.10;99.90;;;;;;4992811;28;20034;-79
2022/11/23 02:22:12;;;;;;;28.67;26.27;;;10.10;99.90;;;;;;4993379;28;20039;-79
2022/11/23 02:24:41;;;;;;;23.27;21.67;;;10.20;99.90;;;;;;5007538;28;20046;-78
2022/11/23 02:27:07;;;;;;;29.45;27.15;;;10.10;99.90;;;;;;5007595;28;20037;-79
2022/11/23 02:29:33;;;;;;;22.60;21.05;;;10.10;99.90;;;;;;5007373;28;20400;-78
2022/11/23 02:31:59;;;;;;;26.13;24.33;;;10.10;99.90;;;;;;5024356;28;20483;-79
2022/11/23 02:34:25;;;;;;;28.95;26.85;;;10.10;99.90;;;;;;4974251;28;20049;-78
2022/11/23 02:36:55;;;;;;;30.10;28.10;;;10.20;99.90;;;;;;4989577;28;20050;-78
2022/11/23 02:39:50;;;;;;;30.88;28.73;;;10.20;99.90;;;;;;5009046;28;20411;-79
2022/11/23 02:42:17;;;;;;;26.30;24.52;;;10.30;99.90;;;;;;4987201;28;20038;-79
2022/11/23 02:44:58;;;;;;;24.75;22.88;;;10.20;99.90;;;;;;5001445;28;20042;-79
2022/11/23 02:47:24;;;;;;;26.85;24.92;;;10.20;99.90;;;;;;4986112;28;20030;-78
2022/11/23 02:49:50;;;;;;;27.30;25.55;;;10.20;99.90;;;;;;4992805;28;20392;-79
2022/11/23 02:52:16;;;;;;;29.80;27.77;;;10.30;99.90;;;;;;4991795;28;20034;-79
2022/11/23 02:54:43;;;;;;;26.30;24.40;;;10.30;99.90;;;;;;5002239;28;20045;-79
2022/11/23 02:57:09;;;;;;;28.98;26.80;;;10.30;99.90;;;;;;5022629;28;20053;-79
2022/11/23 02:59:35;;;;;;;27.85;25.98;;;10.30;99.90;;;;;;5008489;28;20034;-79
2022/11/23 03:02:03;;;;;;;32.38;30.30;;;10.30;99.90;;;;;;5020817;28;20502;-79
2022/11/23 03:04:29;;;;;;;34.90;32.35;;;10.30;99.90;;;;;;4994964;28;20487;-79
2022/11/23 03:06:55;;;;;;;33.92;31.48;;;10.30;99.90;;;;;;4983915;28;20053;-79
2022/11/23 03:09:21;;;;;;;32.38;30.05;;;10.40;99.90;;;;;;4997152;28;20026;-78
2022/11/23 03:11:47;;;;;;;34.10;31.88;;;10.40;99.90;;;;;;4971314;28;20057;-79
2022/11/23 03:14:14;;;;;;;36.10;33.53;;;10.40;99.90;;;;;;4974250;28;20045;-79
2022/11/23 03:16:41;;;;;;;34.17;31.73;;;10.40;99.90;;;;;;5004606;28;20050;-79
2022/11/23 03:19:07;;;;;;;35.17;32.80;;;10.40;99.90;;;;;;5000381;28;20026;-79
2022/11/23 03:21:33;;;;;;;31.40;29.02;;;10.40;99.90;;;;;;4990508;28;20034;-78
2022/11/23 03:23:59;;;;;;;31.15;28.45;;;10.50;99.90;;;;;;4990827;28;20034;-79
2022/11/23 03:26:25;;;;;;;31.13;28.90;;;10.40;99.90;;;;;;5000248;28;20412;-79
2022/11/23 03:28:51;;;;;;;28.38;26.42;;;10.50;99.90;;;;;;4972766;28;20035;-79
2022/11/23 03:31:17;;;;;;;29.70;27.63;;;10.40;99.90;;;;;;4994801;28;20046;-79
2022/11/23 03:33:43;;;;;;;30.58;28.50;;;10.50;99.90;;;;;;5021156;28;20033;-79
2022/11/23 03:36:09;;;;;;;31.70;29.45;;;10.50;99.90;;;;;;5001617;28;20038;-79
2022/11/23 03:38:36;;;;;;;33.22;30.70;;;10.40;99.90;;;;;;5008094;28;20049;-79
2022/11/23 03:41:02;;;;;;;31.00;28.88;;;10.50;99.90;;;;;;4990322;28;20038;-79
2022/11/23 03:43:28;;;;;;;33.78;31.33;;;10.40;99.90;;;;;;5007189;28;20061;-79
2022/11/23 03:45:54;;;;;;;31.50;29.25;;;10.40;99.90;;;;;;4990878;28;20042;-79
2022/11/23 03:48:20;;;;;;;35.05;32.58;;;10.40;99.90;;;;;;4979661;28;20035;-79
2022/11/23 03:50:46;;;;;;;38.22;35.53;;;10.40;99.90;;;;;;4971995;28;20034;-79
2022/11/23 03:53:12;;;;;;;39.22;36.55;;;10.40;99.90;;;;;;4991484;28;20407;-79
2022/11/23 03:55:38;;;;;;;36.00;33.38;;;10.40;99.90;;;;;;5025921;28;20031;-79
2022/11/23 03:58:04;;;;;;;38.25;35.47;;;10.40;99.90;;;;;;5019902;28;20046;-79
2022/11/23 04:00:31;;;;;;;40.33;37.50;;;10.40;99.90;;;;;;4978028;28;20055;-79
2022/11/23 04:02:57;;;;;;;37.00;34.17;;;10.40;99.90;;;;;;5027265;28;20045;-79
2022/11/23 04:05:23;;;;;;;35.10;32.75;;;10.50;99.90;;;;;;5028111;28;20022;-79
2022/11/23 04:07:49;;;;;;;34.58;32.40;;;10.60;99.90;;;;;;5027222;28;20046;-80
2022/11/23 04:10:16;;;;;;;32.42;30.27;;;10.60;99.90;;;;;;5009949;28;20227;-80
2022/11/23 04:12:42;;;;;;;31.10;29.15;;;10.70;99.90;;;;;;5009919;28;20721;-80
2022/11/23 04:15:09;;;;;;;27.95;26.05;;;10.80;99.90;;;;;;5008619;28;20042;-80
2022/11/23 04:17:35;;;;;;;29.42;27.42;;;10.70;99.90;;;;;;4997370;28;20050;-80
2022/11/23 04:20:01;;;;;;;27.52;25.63;;;10.80;99.90;;;;;;4994872;28;20034;-80
2022/11/23 04:22:27;;;;;;;26.25;24.58;;;10.80;99.90;;;;;;5027275;28;20038;-80
2022/11/23 04:24:53;;;;;;;25.95;24.40;;;10.90;99.90;;;;;;4995327;28;20042;-80
2022/11/23 04:27:19;;;;;;;25.23;23.55;;;10.90;99.90;;;;;;4973994;28;20030;-80
2022/11/23 04:29:45;;;;;;;25.73;24.13;;;10.90;99.90;;;;;;4987756;28;20062;-79
2022/11/23 04:32:11;;;;;;;25.55;24.08;;;10.90;99.90;;;;;;4989144;28;20038;-79
2022/11/23 04:34:37;;;;;;;25.15;23.85;;;10.80;99.90;;;;;;4999032;28;20026;-81
2022/11/23 04:37:04;;;;;;;27.42;25.90;;;10.70;99.90;;;;;;4991639;28;20039;-79
2022/11/23 04:39:30;;;;;;;24.55;23.25;;;10.70;99.90;;;;;;4990973;28;20069;-79
2022/11/23 04:41:56;;;;;;;28.30;26.85;;;10.80;99.90;;;;;;4996202;28;20030;-79
2022/11/23 04:44:22;;;;;;;29.88;28.27;;;10.80;99.90;;;;;;4978088;28;20030;-79
2022/11/23 04:46:49;;;;;;;29.40;27.63;;;10.90;99.90;;;;;;5003783;28;20039;-79
2022/11/23 04:49:15;;;;;;;33.88;26.33;;;10.90;99.90;;;;;;4974931;28;20037;-79
2022/11/23 04:51:41;;;;;;;29.25;27.70;;;10.90;99.90;;;;;;5003853;28;20031;-79
2022/11/23 04:54:08;;;;;;;30.95;29.33;;;10.90;99.90;;;;;;5007626;28;20037;-80
2022/11/23 04:56:34;;;;;;;32.35;30.65;;;10.80;99.90;;;;;;4996036;28;20045;-80
2022/11/23 04:59:00;;;;;;;33.30;31.55;;;10.80;99.90;;;;;;4989503;28;20042;-81
2022/11/23 05:01:26;;;;;;;38.58;36.05;;;10.70;99.90;;;;;;4974931;28;20050;-78
2022/11/23 05:03:52;;;;;;;38.90;36.72;;;10.80;99.90;;;;;;4993085;28;20034;-79
2022/11/23 05:06:18;;;;;;;38.83;36.85;;;10.80;99.90;;;;;;4994593;28;20034;-79
2022/11/23 05:08:44;;;;;;;38.80;36.88;;;10.80;99.90;;;;;;5009829;28;20494;-79
2022/11/23 05:11:10;;;;;;;39.80;37.63;;;10.90;99.90;;;;;;4995100;28;20054;-79
2022/11/23 05:13:36;;;;;;;38.78;36.75;;;10.90;99.90;;;;;;4995796;28;20038;-79
2022/11/23 05:16:03;;;;;;;41.45;39.20;;;10.90;99.90;;;;;;4996709;28;20042;-79
2022/11/23 05:18:29;;;;;;;42.95;40.70;;;10.90;99.90;;;;;;5004863;28;20030;-79
2022/11/23 05:20:55;;;;;;;37.92;35.85;;;10.90;99.90;;;;;;4995439;28;20034;-79
2022/11/23 05:23:21;;;;;;;42.03;39.78;;;10.90;99.90;;;;;;4994470;28;20038;-79
2022/11/23 05:25:47;;;;;;;232.88;43.03;;;10.90;99.90;;;;;;4994324;28;20062;-79
2022/11/23 05:28:17;;;;;;;40.65;38.53;;;10.90;99.90;;;;;;4994812;28;20046;-79
2022/11/23 05:30:43;;;;;;;38.90;36.75;;;10.90;99.90;;;;;;4993719;28;20053;-79
2022/11/23 05:33:10;;;;;;;35.28;33.03;;;10.90;99.90;;;;;;5009513;28;20038;-79
2022/11/23 05:35:36;;;;;;;35.08;33.17;;;10.90;99.90;;;;;;4995086;28;20042;-79
2022/11/23 05:38:02;;;;;;;33.50;31.70;;;10.90;99.90;;;;;;4995172;28;20479;-79
2022/11/23 05:40:28;;;;;;;36.17;34.28;;;10.90;99.90;;;;;;4976441;28;20046;-79
2022/11/23 05:42:57;;;;;;;36.78;34.70;;;10.90;99.90;;;;;;4989682;28;20065;-79
2022/11/23 05:45:24;;;;;;;36.50;34.50;;;11.00;99.90;;;;;;4977749;28;20030;-79
2022/11/23 05:47:55;;;;;;;36.97;34.88;;;11.00;99.90;;;;;;4995113;28;20375;-79
2022/11/23 05:50:21;;;;;;;34.30;32.40;;;10.90;99.90;;;;;;5026679;28;20022;-79
2022/11/23 05:52:48;;;;;;;34.00;32.13;;;10.90;99.90;;;;;;5009108;28;20039;-79
2022/11/23 05:55:14;;;;;;;35.83;33.92;;;10.90;99.90;;;;;;4993543;28;20061;-79
2022/11/23 05:57:40;;;;;;;36.88;34.70;;;10.90;99.90;;;;;;5026548;28;20037;-79
2022/11/23 06:00:09;;;;;;;35.20;33.35;;;10.90;99.90;;;;;;4994121;28;20026;-79
2022/11/23 06:02:35;;;;;;;36.25;34.25;;;10.90;99.90;;;;;;5009491;28;20440;-79
2022/11/23 06:05:02;;;;;;;34.53;32.67;;;11.00;99.90;;;;;;5009908;28;20034;-79
2022/11/23 06:07:28;;;;;;;36.58;34.50;;;11.00;99.90;;;;;;4994023;28;20030;-80
2022/11/23 06:09:54;;;;;;;36.83;34.83;;;11.00;99.90;;;;;;5008902;28;20368;-79
2022/11/23 06:12:20;;;;;;;36.72;34.83;;;11.10;99.90;;;;;;4994588;28;20027;-79
2022/11/23 06:14:46;;;;;;;32.70;31.00;;;11.10;99.90;;;;;;4993031;28;20439;-79
2022/11/23 06:17:12;;;;;;;36.75;34.65;;;11.10;99.90;;;;;;4993711;28;20082;-79
2022/11/23 06:19:38;;;;;;;36.40;34.45;;;11.10;99.90;;;;;;4974896;28;20388;-79
2022/11/23 06:22:04;;;;;;;33.28;31.35;;;11.10;99.90;;;;;;4972672;28;20031;-79
2022/11/23 06:24:30;;;;;;;35.05;33.25;;;11.10;99.90;;;;;;4975847;28;21004;-79
2022/11/23 06:26:56;;;;;;;34.42;32.60;;;11.10;99.90;;;;;;4960761;28;20503;-79
2022/11/23 06:29:23;;;;;;;35.55;33.60;;;11.30;99.90;;;;;;4993944;28;20037;-79
2022/11/23 06:31:49;;;;;;;38.03;35.97;;;11.20;99.90;;;;;;4992572;28;20034;-79
2022/11/23 06:34:15;;;;;;;77.43;38.00;;;11.20;99.90;;;;;;4994203;28;20034;-79
2022/11/23 06:36:42;;;;;;;36.47;34.45;;;11.30;99.90;;;;;;4979137;28;20417;-80
2022/11/23 06:39:08;;;;;;;39.28;34.38;;;11.30;99.90;;;;;;4971848;28;20468;-80
2022/11/23 06:41:35;;;;;;;43.65;41.20;;;11.40;99.90;;;;;;4989489;28;20491;-79
2022/11/23 06:44:01;;;;;;;43.28;40.90;;;11.40;99.90;;;;;;4988540;28;20038;-79
2022/11/23 06:46:27;;;;;;;44.97;42.38;;;11.40;99.90;;;;;;4946329;28;20042;-79
2022/11/23 06:48:53;;;;;;;43.28;40.75;;;11.40;99.90;;;;;;5009065;28;20262;-80
2022/11/23 06:51:19;;;;;;;37.38;35.05;;;11.50;99.90;;;;;;5005462;28;20378;-79
2022/11/23 06:53:45;;;;;;;34.88;32.80;;;11.50;99.90;;;;;;4977817;28;20035;-79
2022/11/23 06:56:11;;;;;;;34.05;31.85;;;11.40;99.90;;;;;;4991628;28;20514;-79
2022/11/23 06:58:37;;;;;;;34.38;31.33;;;11.40;99.90;;;;;;4993027;28;20034;-79
2022/11/23 07:01:05;;;;;;;32.72;29.85;;;11.40;99.90;;;;;;4992579;28;20384;-80
2022/11/23 07:03:31;;;;;;;37.97;34.72;;;11.40;99.90;;;;;;4972205;28;20031;-79
2022/11/23 07:05:57;;;;;;;38.47;35.17;;;11.40;99.90;;;;;;4964477;28;20038;-79
2022/11/23 07:08:23;;;;;;;38.80;35.53;;;11.50;99.90;;;;;;4972471;28;20051;-79
2022/11/23 07:10:49;;;;;;;220.93;47.60;;;11.50;99.90;;;;;;4977379;28;20388;-80
2022/11/23 07:13:16;;;;;;;41.60;37.75;;;11.60;99.90;;;;;;4972631;28;20039;-78
2022/11/23 07:15:42;;;;;;;46.20;42.50;;;11.60;99.90;;;;;;5004797;28;20061;-78
2022/11/23 07:18:08;;;;;;;50.17;45.67;;;11.60;99.90;;;;;;4971267;28;20051;-79
2022/11/23 07:20:35;;;;;;;49.33;44.47;;;11.60;99.90;;;;;;5004214;28;20038;-79
2022/11/23 07:23:02;;;;;;;52.40;48.25;;;11.70;99.90;;;;;;4973946;28;20415;-79
2022/11/23 07:25:29;;;;;;;57.45;51.03;;;11.70;99.90;;;;;;4987843;28;20050;-78
2022/11/23 07:27:56;;;;;;;64.30;58.90;;;11.80;99.90;;;;;;4960514;28;20058;-79
2022/11/23 07:30:23;;;;;;;67.13;61.08;;;11.80;99.90;;;;;;4957090;28;20026;-79
2022/11/23 07:32:49;;;;;;;69.03;63.35;;;11.90;99.90;;;;;;4978347;28;20037;-80
2022/11/23 07:35:15;;;;;;;69.82;64.15;;;11.90;99.90;;;;;;4966629;28;20030;-80
2022/11/23 07:37:41;;;;;;;66.75;61.15;;;11.90;99.90;;;;;;5007082;28;20045;-80
2022/11/23 07:40:08;;;;;;;61.78;55.75;;;11.90;99.90;;;;;;4990744;28;20038;-80
2022/11/23 07:42:34;;;;;;;69.82;62.45;;;11.90;99.90;;;;;;4991521;28;20038;-79
2022/11/23 07:45:00;;;;;;;50.92;45.50;;;12.00;99.90;;;;;;4992980;28;20471;-79
2022/11/23 07:47:26;;;;;;;72.22;41.38;;;12.00;99.90;;;;;;4989175;28;20035;-81
2022/11/23 07:49:52;;;;;;;47.25;39.80;;;12.10;99.90;;;;;;5016953;28;20395;-84
2022/11/23 07:52:18;;;;;;;47.97;42.75;;;12.10;99.90;;;;;;5007921;28;20030;-84
2022/11/23 07:54:44;;;;;;;47.15;42.35;;;12.10;99.90;;;;;;4990455;28;20029;-89
2022/11/23 07:57:11;;;;;;;48.65;38.67;;;12.10;99.90;;;;;;4975606;28;20042;-83
2022/11/23 07:59:37;;;;;;;44.00;38.55;;;12.20;99.90;;;;;;4981050;28;20043;-81
2022/11/23 08:02:03;;;;;;;55.20;42.38;;;12.20;99.90;;;;;;4976195;28;20046;-82
2022/11/23 08:04:29;;;;;;;42.20;37.75;;;12.20;99.90;;;;;;4992630;28;20031;-80
2022/11/23 08:06:55;;;;;;;48.47;34.75;;;12.20;99.90;;;;;;4987465;28;20034;-83
2022/11/23 08:09:21;;;;;;;47.58;37.80;;;12.30;99.90;;;;;;5003075;28;20034;-83
2022/11/23 08:11:47;;;;;;;53.00;38.22;;;12.30;99.90;;;;;;4980892;28;20058;-81
2022/11/23 08:14:13;;;;;;;42.78;38.15;;;12.30;99.90;;;;;;5000362;28;20026;-82
2022/11/23 08:16:39;;;;;;;41.75;36.90;;;12.30;99.90;;;;;;5010596;28;20046;-84
2022/11/23 08:19:06;;;;;;;43.17;38.40;;;12.40;99.90;;;;;;4991558;28;20407;-82
2022/11/23 08:21:32;;;;;;;39.17;35.67;;;12.40;99.90;;;;;;4981821;28;20031;-80
2022/11/23 08:23:58;;;;;;;40.00;36.42;;;12.40;99.90;;;;;;4982116;28;20047;-82
2022/11/23 08:26:24;;;;;;;38.88;35.05;;;12.40;99.90;;;;;;4987708;28;20050;-81
2022/11/23 08:28:50;;;;;;;43.03;38.97;;;12.40;99.90;;;;;;4993550;28;20051;-82
2022/11/23 08:31:16;;;;;;;45.83;41.25;;;12.50;99.90;;;;;;5000966;28;20065;-82
2022/11/23 08:33:42;;;;;;;59.28;54.40;;;12.50;99.90;;;;;;4991671;28;20034;-84
2022/11/23 08:36:08;;;;;;;59.90;55.50;;;12.50;99.90;;;;;;4991852;28;20378;-81
2022/11/23 08:38:35;;;;;;;74.93;69.93;;;12.50;99.90;;;;;;4992142;28;20042;-82
2022/11/23 08:41:01;;;;;;;69.72;65.00;;;12.60;99.90;;;;;;4973213;28;20049;-80
2022/11/23 08:43:27;;;;;;;59.55;55.13;;;12.60;99.90;;;;;;4983045;28;20478;-80
2022/11/23 08:45:57;;;;;;;61.22;57.28;;;12.60;99.90;;;;;;5010021;28;20030;-80
2022/11/23 08:48:24;;;;;;;50.33;46.53;;;12.60;99.90;;;;;;5002253;28;20023;-81
2022/11/23 08:50:50;;;;;;;41.67;38.60;;;12.60;99.90;;;;;;5003408;28;20030;-80
2022/11/23 08:53:16;;;;;;;44.60;41.53;;;12.60;99.90;;;;;;5008887;28;20034;-81
2022/11/23 08:55:42;;;;;;;47.85;44.63;;;12.70;99.90;;;;;;5004681;28;20038;-79
2022/11/23 08:58:08;;;;;;;45.00;41.65;;;12.70;99.90;;;;;;5009535;28;20046;-79
2022/11/23 09:00:34;;;;;;;49.10;45.58;;;12.70;99.90;;;;;;4977848;28;20033;-82
2022/11/23 09:03:01;;;;;;;61.70;57.00;;;12.80;99.90;;;;;;4995851;28;20037;-79
2022/11/23 09:05:28;;;;;;;63.05;58.33;;;12.90;99.90;;;;;;4975254;28;20031;-80
2022/11/23 09:07:55;;;;;;;45.97;42.58;;;12.90;99.90;;;;;;5009802;28;20034;-81
2022/11/23 09:10:21;;;;;;;32.55;29.92;;;12.90;99.90;;;;;;4989461;28;20037;-81
2022/11/23 09:12:47;;;;;;;41.10;37.63;;;12.90;99.90;;;;;;4959940;28;20042;-81
2022/11/23 09:15:13;;;;;;;33.25;29.95;;;13.00;99.90;;;;;;4988094;28;20364;-80
2022/11/23 09:17:39;;;;;;;36.75;33.53;;;13.10;99.90;;;;;;4991868;28;20053;-76
2022/11/23 09:20:06;;;;;;;24.45;22.60;;;13.10;99.90;;;;;;4995406;28;20038;-79
2022/11/23 09:22:32;;;;;;;25.55;23.23;;;13.20;99.90;;;;;;4988776;28;20377;-80
2022/11/23 09:24:58;;;;;;;24.27;22.17;;;13.20;99.90;;;;;;4975417;28;20053;-81
2022/11/23 09:27:24;;;;;;;22.00;17.70;;;13.20;99.90;;;;;;4995385;28;20030;-81
2022/11/23 09:29:50;;;;;;;31.13;18.38;;;13.30;99.90;;;;;;5006572;28;20034;-82
2022/11/23 09:32:16;;;;;;;22.65;18.17;;;13.30;99.90;;;;;;4972285;28;20043;-82
2022/11/23 09:34:44;;;;;;;21.52;19.13;;;13.30;99.90;;;;;;4983703;28;20073;-84
2022/11/23 09:37:11;;;;;;;29.75;18.80;;;13.30;99.90;;;;;;4990485;28;20380;-81
2022/11/23 09:39:37;;;;;;;24.88;17.88;;;13.40;99.90;;;;;;5008029;28;20037;-82
2022/11/23 09:42:12;;;;;;;21.27;16.73;;;13.40;99.90;;;;;;5004201;28;20057;-80
2022/11/23 09:45:15;;;;;;;21.98;19.80;;;13.40;99.90;;;;;;4994228;28;20034;-82
2022/11/23 09:48:15;;;;;;;22.65;18.25;;;13.40;99.90;;;;;;4987116;28;20038;-82
2022/11/23 09:50:51;;;;;;;23.05;20.83;;;13.40;99.90;;;;;;5006045;28;20045;-80
2022/11/23 09:53:38;;;;;;;22.52;19.15;;;13.50;99.90;;;;;;5008680;28;20041;-80
2022/11/23 09:56:07;;;;;;;19.50;17.70;;;13.50;99.90;;;;;;5009984;28;20057;-80
2022/11/23 09:58:36;;;;;;;24.77;18.00;;;13.60;99.90;;;;;;5001701;28;20053;-80
2022/11/23 10:01:04;;;;;;;20.13;16.25;;;13.60;99.90;;;;;;4993298;28;20419;-80
2022/11/23 10:03:36;;;;;;;18.52;14.35;;;13.60;99.90;;;;;;4980529;28;20479;-80
2022/11/23 10:06:24;;;;;;;20.65;15.75;;;13.60;99.90;;;;;;4992839;28;20043;-81
2022/11/23 10:09:17;;;;;;;20.27;14.45;;;13.60;99.90;;;;;;4994355;28;20053;-81
2022/11/23 10:11:49;;;;;;;18.95;15.15;;;13.60;99.90;;;;;;4975271;28;20035;-81
2022/11/23 10:14:45;;;;;;;19.13;14.40;;;13.70;99.90;;;;;;4993233;28;20027;-78
2022/11/23 10:17:39;;;;;;;22.90;14.98;;;13.70;99.90;;;;;;4996179;28;20038;-79
2022/11/23 10:20:32;;;;;;;22.95;14.65;;;13.70;99.90;;;;;;4993355;28;20041;-78
2022/11/23 10:22:59;;;;;;;18.02;14.48;;;13.70;99.90;;;;;;5025547;28;20026;-78
2022/11/23 10:25:32;;;;;;;16.15;14.55;;;13.70;99.90;;;;;;5007682;28;20038;-81
2022/11/23 10:28:00;;;;;;;15.85;13.93;;;13.70;99.90;;;;;;5009126;28;20233;-80
2022/11/23 10:30:26;;;;;;;17.48;14.10;;;13.70;99.90;;;;;;4981540;28;20030;-79
2022/11/23 10:32:55;;;;;;;22.35;13.25;;;13.70;99.90;;;;;;5018369;28;20030;-79
2022/11/23 10:35:32;;;;;;;21.88;13.43;;;13.70;99.90;;;;;;4992245;28;20041;-81
2022/11/23 10:38:18;;;;;;;21.80;12.55;;;13.70;99.90;;;;;;4977638;28;20046;-79
2022/11/23 10:40:59;;;;;;;14.15;11.77;;;13.70;99.90;;;;;;4976689;28;20033;-79
2022/11/23 10:43:28;;;;;;;23.95;13.55;;;13.80;99.90;;;;;;4993035;28;20057;-80
2022/11/23 10:46:28;;;;;;;19.20;12.25;;;13.80;99.90;;;;;;4975060;28;20487;-79
2022/11/23 10:48:54;;;;;;;25.23;14.95;;;13.80;99.90;;;;;;4968920;28;20388;-80
2022/11/23 10:51:31;;;;;;;22.23;14.05;;;13.80;99.90;;;;;;4989188;28;20384;-79
2022/11/23 10:54:00;;;;;;;24.10;14.43;;;13.80;99.90;;;;;;4991041;28;20129;-79
2022/11/23 10:56:26;;;;;;;22.40;13.75;;;13.80;99.90;;;;;;4975376;28;20026;-79
2022/11/23 10:58:53;;;;;;;23.00;13.63;;;13.90;99.90;;;;;;4989009;28;20038;-79
2022/11/23 11:01:28;;;;;;;19.88;15.05;;;13.90;99.90;;;;;;4990800;28;20057;-81
2022/11/23 11:03:55;;;;;;;20.60;14.27;;;13.90;99.90;;;;;;4966048;28;20027;-84
2022/11/23 11:06:25;;;;;;;24.73;13.77;;;13.90;99.90;;;;;;4991295;28;20033;-84
2022/11/23 11:09:04;;;;;;;19.00;12.40;;;14.00;99.90;;;;;;4976800;28;20490;-83
2022/11/23 11:11:35;;;;;;;21.17;13.98;;;14.10;99.90;;;;;;4975096;28;20391;-82
2022/11/23 11:14:15;;;;;;;21.00;14.63;;;14.10;99.90;;;;;;4992067;28;20034;-83
2022/11/23 11:16:48;;;;;;;24.80;13.73;;;14.10;99.90;;;;;;4989454;28;20042;-84
2022/11/23 11:19:27;;;;;;;20.63;13.13;;;14.10;99.90;;;;;;4974528;28;20035;-83
2022/11/23 11:21:53;;;;;;;33.85;14.73;;;14.00;99.90;;;;;;4973608;28;20385;-83
2022/11/23 11:24:20;;;;;;;24.85;13.50;;;14.00;99.90;;;;;;4972203;28;20034;-82
2022/11/23 11:27:16;;;;;;;23.88;14.57;;;14.00;99.90;;;;;;4963022;28;20050;-83
2022/11/23 11:29:46;;;;;;;24.65;14.02;;;14.10;99.90;;;;;;4971155;28;20023;-83
2022/11/23 11:32:22;;;;;;;20.38;14.05;;;14.20;99.90;;;;;;4968768;28;20045;-84
2022/11/23 11:34:58;;;;;;;24.70;14.20;;;14.20;99.90;;;;;;4990235;28;20038;-81
2022/11/23 11:37:32;;;;;;;25.73;14.13;;;14.20;99.90;;;;;;4974868;28;20396;-81
2022/11/23 11:40:24;;;;;;;29.23;14.93;;;14.30;99.90;;;;;;4982243;28;20043;-80
2022/11/23 11:43:09;;;;;;;25.48;15.60;;;14.40;99.90;;;;;;4973681;28;20038;-81
2022/11/23 11:45:41;;;;;;;25.90;15.85;;;14.50;99.90;;;;;;4999227;28;20046;-81
2022/11/23 11:48:15;;;;;;;28.63;14.98;;;14.60;99.90;;;;;;4993456;28;20468;-81
2022/11/23 11:50:55;;;;;;;19.77;14.70;;;14.60;99.90;;;;;;4988287;28;20026;-81
2022/11/23 11:53:48;;;;;;;23.52;15.30;;;14.60;99.90;;;;;;5001390;28;20368;-80
2022/11/23 11:56:30;;;;;;;26.60;14.40;;;14.60;99.90;;;;;;5005023;28;20408;-78
2022/11/23 11:59:01;;;;;;;27.17;15.18;;;14.50;99.90;;;;;;5007499;28;20050;-80
2022/11/23 12:01:49;;;;;;;23.90;15.18;;;14.40;99.90;;;;;;4989968;28;20030;-78
2022/11/23 12:04:49;;;;;;;34.72;15.32;;;14.40;99.90;;;;;;4973108;28;20035;-81
2022/11/23 12:07:19;;;;;;;28.30;15.40;;;14.40;99.90;;;;;;4979189;28;20039;-80
2022/11/23 12:09:47;;;;;;;23.45;15.15;;;14.40;99.90;;;;;;5002300;28;20038;-78
2022/11/23 12:12:18;;;;;;;32.50;15.70;;;14.40;99.90;;;;;;4995242;28;20070;-78
2022/11/23 12:14:45;;;;;;;30.45;16.58;;;14.50;99.90;;;;;;4953259;28;20046;-79
2022/11/23 12:17:36;;;;;;;24.35;14.85;;;14.60;99.90;;;;;;4983095;28;20471;-78
2022/11/23 12:20:15;;;;;;;23.23;16.33;;;14.70;99.90;;;;;;5002978;28;20042;-80
2022/11/23 12:23:04;;;;;;;22.67;14.82;;;14.90;99.90;;;;;;4994493;28;20088;-78
2022/11/23 12:25:35;;;;;;;20.85;15.25;;;15.00;99.90;;;;;;4994203;28;20046;-79
2022/11/23 12:28:27;;;;;;;23.92;14.27;;;15.00;99.90;;;;;;4978262;28;20039;-78
2022/11/23 12:31:01;;;;;;;25.98;14.20;;;15.10;99.90;;;;;;5025828;28;20030;-78
2022/11/23 12:33:42;;;;;;;22.13;16.70;;;15.10;99.90;;;;;;4995709;28;20357;-78
2022/11/23 12:36:46;;;;;;;26.65;15.60;;;15.20;99.90;;;;;;5023037;28;20038;-78